weather.gov     
National Weather Service

Terminal Aerodrome Forecast
NWS Homepage
This page is being discontinued on March 12, 2014.
The same data is available at this site. Please update your bookmarks.
Thank you, and we apologize for the inconvenience.
Please send an email to SR-SRH.Webmaster@noaa.gov with any concerns.


Current Version
Previous Version:    01  02  03  04  05  06  07  08  09  10  11  12  13  14  15  16  17  18  19  20  21  22  23  24  25  26  27  28  29  30  
   31  32  33  
[Printable]
828
FTUS46 KPQR 192329
TAFTTD
TAF
KTTD 192329Z 2000/2024 18009KT P6SM -SHRA FEW030 SCT060
      TEMPO 2000/2004 BKN030 OVC060
     FM200400 10006KT P6SM VCSH SCT030 OVC060
     FM200900 10015KT 6SM -RA BR FEW030 OVC050
     FM201200 10015G25KT 6SM -RA BR FEW015 SCT030 OVC050=




828
FTUS46 KPQR 192329
TAFTTD
TAF
KTTD 192329Z 2000/2024 18009KT P6SM -SHRA FEW030 SCT060
      TEMPO 2000/2004 BKN030 OVC060
     FM200400 10006KT P6SM VCSH SCT030 OVC060
     FM200900 10015KT 6SM -RA BR FEW030 OVC050
     FM201200 10015G25KT 6SM -RA BR FEW015 SCT030 OVC050=


U.S. Dept. of Commerce
NOAA National Weather Service
1325 East West Highway
Silver Spring, MD 20910
E-mail: w-nws.webmaster@noaa.gov
Page last modified: May 16, 2007
NATIONAL WEATHER SERVICE: for Safety, for Work, for Fun - FOR LIFE